首页
METAR-TAF:

METAR-TAF

机场 :

波德戈里察國際機場

波德戈里察, 蒙特內哥羅

纬度: 42-26N, 经度: 019-17E, 海拔: 53米

当前天气观测

该预报发布于15分钟前的07:00 UTC
风速1节,风向多变
温度 18°C
湿度 59%
气压 1020 hPa
能见度10公里或以上
1500米以下无云,无积雨云

METAR: LYPG 150700Z VRB01KT CAVOK 18/10 Q1020 NOSIG

时间: 09:15 (07:15 UTC)

预报

该预报发布于2小时和15分钟前的05:00 UTC
预报有效从15日的 06点(UTC)到 16日的 06点(UTC)
风速5节,风向南转南东
能见度10公里或以上
1500米以下无云,无积雨云

TAF: LYPG 150500Z 1506/1606 16005KT CAVOK TX28/1513Z TN12/1605Z

超过4000个机场的气象观测和天气预报(METAR&TAF报告)。

可查询的气象台以黄色和红色小点在地图上表示。

将鼠标移到小点上方,可查看气象台名称。

然后点击查看天气观测和预报。

如需切换地图:点击带黑十字的绿色按钮放大地图;点击带横线的绿色按钮缩小地图;或者点击绿色箭头查看邻近地区的地图。


METAR-TAF: